sensor_id;sensor_type;location;lat;lon;timestamp;pressure;altitude;pressure_sealevel;temperature;humidity
40612;BME280;26317;44.894;20.286;2023-08-06T00:00:15;99533.34;;;20.64;100.00
40612;BME280;26317;44.894;20.286;2023-08-06T00:03:00;99539.38;;;20.54;100.00
40612;BME280;26317;44.894;20.286;2023-08-06T00:05:36;99557.75;;;20.57;100.00
40612;BME280;26317;44.894;20.286;2023-08-06T00:08:16;99563.88;;;20.54;100.00
40612;BME280;26317;44.894;20.286;2023-08-06T00:10:56;99534.09;;;20.42;100.00
40612;BME280;26317;44.894;20.286;2023-08-06T00:13:29;99525.22;;;20.45;100.00
40612;BME280;26317;44.894;20.286;2023-08-06T00:16:16;99527.50;;;20.43;100.00
40612;BME280;26317;44.894;20.286;2023-08-06T00:19:02;99536.09;;;20.45;100.00
40612;BME280;26317;44.894;20.286;2023-08-06T00:21:38;99531.75;;;20.40;100.00
40612;BME280;26317;44.894;20.286;2023-08-06T00:24:22;99530.59;;;20.41;100.00
40612;BME280;26317;44.894;20.286;2023-08-06T00:27:04;99516.19;;;20.41;100.00
40612;BME280;26317;44.894;20.286;2023-08-06T00:29:47;99517.97;;;20.33;100.00
40612;BME280;26317;44.894;20.286;2023-08-06T00:32:30;99510.16;;;20.32;100.00
40612;BME280;26317;44.894;20.286;2023-08-06T00:35:27;99512.53;;;20.33;100.00
40612;BME280;26317;44.894;20.286;2023-08-06T00:38:09;99491.53;;;20.34;100.00
40612;BME280;26317;44.894;20.286;2023-08-06T00:40:46;99483.06;;;20.39;100.00
40612;BME280;26317;44.894;20.286;2023-08-06T00:43:26;99482.31;;;20.42;100.00
40612;BME280;26317;44.894;20.286;2023-08-06T00:46:06;99484.75;;;20.47;100.00
40612;BME280;26317;44.894;20.286;2023-08-06T00:48:50;99480.91;;;20.48;100.00
40612;BME280;26317;44.894;20.286;2023-08-06T00:51:35;99483.69;;;20.51;100.00
40612;BME280;26317;44.894;20.286;2023-08-06T00:54:16;99466.19;;;20.52;100.00
40612;BME280;26317;44.894;20.286;2023-08-06T00:56:58;99456.09;;;20.53;100.00
40612;BME280;26317;44.894;20.286;2023-08-06T00:59:38;99466.25;;;20.56;100.00
40612;BME280;26317;44.894;20.286;2023-08-06T01:02:13;99453.06;;;20.58;100.00
40612;BME280;26317;44.894;20.286;2023-08-06T01:04:54;99447.22;;;20.59;100.00
40612;BME280;26317;44.894;20.286;2023-08-06T01:07:45;99439.00;;;20.56;100.00
40612;BME280;26317;44.894;20.286;2023-08-06T01:10:34;99456.97;;;20.60;100.00
40612;BME280;26317;44.894;20.286;2023-08-06T01:13:18;99464.00;;;20.61;100.00
40612;BME280;26317;44.894;20.286;2023-08-06T01:16:02;99460.84;;;20.59;100.00
40612;BME280;26317;44.894;20.286;2023-08-06T01:18:39;99460.91;;;20.63;100.00
40612;BME280;26317;44.894;20.286;2023-08-06T01:21:28;99447.97;;;20.56;100.00
40612;BME280;26317;44.894;20.286;2023-08-06T01:24:04;99455.47;;;20.63;100.00
40612;BME280;26317;44.894;20.286;2023-08-06T01:26:53;99458.97;;;20.63;100.00
40612;BME280;26317;44.894;20.286;2023-08-06T01:29:37;99454.66;;;20.62;100.00
40612;BME280;26317;44.894;20.286;2023-08-06T01:32:16;99448.47;;;20.62;100.00
40612;BME280;26317;44.894;20.286;2023-08-06T01:34:53;99442.56;;;20.60;100.00
40612;BME280;26317;44.894;20.286;2023-08-06T01:37:45;99444.00;;;20.54;100.00
40612;BME280;26317;44.894;20.286;2023-08-06T01:40:31;99444.75;;;20.51;100.00
40612;BME280;26317;44.894;20.286;2023-08-06T01:43:14;99441.22;;;20.50;100.00
40612;BME280;26317;44.894;20.286;2023-08-06T01:45:56;99432.22;;;20.46;100.00
40612;BME280;26317;44.894;20.286;2023-08-06T01:48:51;99440.75;;;20.45;100.00
40612;BME280;26317;44.894;20.286;2023-08-06T01:51:28;99429.44;;;20.43;100.00
40612;BME280;26317;44.894;20.286;2023-08-06T01:54:12;99428.28;;;20.44;100.00
40612;BME280;26317;44.894;20.286;2023-08-06T01:57:07;99430.22;;;20.43;100.00
40612;BME280;26317;44.894;20.286;2023-08-06T01:59:42;99437.25;;;20.44;100.00
40612;BME280;26317;44.894;20.286;2023-08-06T02:02:24;99416.53;;;20.40;100.00
40612;BME280;26317;44.894;20.286;2023-08-06T02:05:09;99408.44;;;20.43;100.00
40612;BME280;26317;44.894;20.286;2023-08-06T02:07:46;99401.41;;;20.42;100.00
40612;BME280;26317;44.894;20.286;2023-08-06T02:10:42;99399.34;;;20.36;100.00
40612;BME280;26317;44.894;20.286;2023-08-06T02:13:25;99398.22;;;20.37;100.00
40612;BME280;26317;44.894;20.286;2023-08-06T02:15:57;99397.38;;;20.33;100.00
40612;BME280;26317;44.894;20.286;2023-08-06T02:18:50;99401.22;;;20.32;100.00
40612;BME280;26317;44.894;20.286;2023-08-06T02:21:33;99394.19;;;20.31;100.00
40612;BME280;26317;44.894;20.286;2023-08-06T02:24:10;99397.38;;;20.33;100.00
40612;BME280;26317;44.894;20.286;2023-08-06T02:26:47;99399.34;;;20.36;100.00
40612;BME280;26317;44.894;20.286;2023-08-06T02:29:20;99396.63;;;20.36;100.00
40612;BME280;26317;44.894;20.286;2023-08-06T02:32:00;99396.63;;;20.36;100.00
40612;BME280;26317;44.894;20.286;2023-08-06T02:34:34;99376.28;;;20.30;100.00
40612;BME280;26317;44.894;20.286;2023-08-06T02:37:13;99380.34;;;20.39;100.00
40612;BME280;26317;44.894;20.286;2023-08-06T02:39:52;99376.44;;;20.37;100.00
40612;BME280;26317;44.894;20.286;2023-08-06T02:42:47;99368.66;;;20.39;100.00
40612;BME280;26317;44.894;20.286;2023-08-06T02:45:23;99372.97;;;20.40;100.00
40612;BME280;26317;44.894;20.286;2023-08-06T02:48:06;99377.28;;;20.41;100.00
40612;BME280;26317;44.894;20.286;2023-08-06T02:50:48;99385.00;;;20.39;100.00
40612;BME280;26317;44.894;20.286;2023-08-06T02:53:34;99383.84;;;20.40;100.00
40612;BME280;26317;44.894;20.286;2023-08-06T02:56:17;99378.31;;;20.33;100.00
40612;BME280;26317;44.894;20.286;2023-08-06T02:59:23;99384.94;;;20.35;100.00
40612;BME280;26317;44.894;20.286;2023-08-06T03:02:12;99390.69;;;20.30;100.00
40612;BME280;26317;44.894;20.286;2023-08-06T03:05:12;99410.09;;;20.29;100.00
40612;BME280;26317;44.894;20.286;2023-08-06T03:08:02;99424.88;;;20.28;100.00
40612;BME280;26317;44.894;20.286;2023-08-06T03:10:38;99425.22;;;20.26;100.00
40612;BME280;26317;44.894;20.286;2023-08-06T03:13:20;99426.81;;;20.27;100.00
40612;BME280;26317;44.894;20.286;2023-08-06T03:16:14;99429.16;;;20.29;100.00
40612;BME280;26317;44.894;20.286;2023-08-06T03:18:49;99430.75;;;20.30;100.00
40612;BME280;26317;44.894;20.286;2023-08-06T03:21:33;99425.75;;;20.32;100.00
40612;BME280;26317;44.894;20.286;2023-08-06T03:24:12;99424.66;;;20.36;100.00
40612;BME280;26317;44.894;20.286;2023-08-06T03:26:48;99430.09;;;20.36;100.00
40612;BME280;26317;44.894;20.286;2023-08-06T03:29:29;99423.03;;;20.32;100.00
40612;BME280;26317;44.894;20.286;2023-08-06T03:32:11;99428.88;;;20.34;100.00
40612;BME280;26317;44.894;20.286;2023-08-06T03:34:54;99420.00;;;20.37;100.00
40612;BME280;26317;44.894;20.286;2023-08-06T03:37:32;99416.06;;;20.34;100.00
40612;BME280;26317;44.894;20.286;2023-08-06T03:40:17;99410.97;;;20.33;100.00
40612;BME280;26317;44.894;20.286;2023-08-06T03:42:55;99419.16;;;20.33;100.00
40612;BME280;26317;44.894;20.286;2023-08-06T03:45:29;99409.66;;;20.27;100.00
40612;BME280;26317;44.894;20.286;2023-08-06T03:48:19;99421.28;;;20.24;100.00
40612;BME280;26317;44.894;20.286;2023-08-06T03:50:57;99411.53;;;20.23;100.00
40612;BME280;26317;44.894;20.286;2023-08-06T03:53:40;99405.66;;;20.20;100.00
40612;BME280;26317;44.894;20.286;2023-08-06T03:56:11;99413.91;;;20.24;100.00
40612;BME280;26317;44.894;20.286;2023-08-06T03:58:53;99405.00;;;20.27;100.00
40612;BME280;26317;44.894;20.286;2023-08-06T04:01:31;99423.72;;;20.29;100.00
40612;BME280;26317;44.894;20.286;2023-08-06T04:04:16;99426.09;;;20.30;100.00
40612;BME280;26317;44.894;20.286;2023-08-06T04:06:52;99422.22;;;20.31;100.00
40612;BME280;26317;44.894;20.286;2023-08-06T04:09:28;99414.41;;;20.30;100.00
40612;BME280;26317;44.894;20.286;2023-08-06T04:12:20;99420.34;;;20.35;100.00
40612;BME280;26317;44.894;20.286;2023-08-06T04:14:58;99404.66;;;20.29;100.00
40612;BME280;26317;44.894;20.286;2023-08-06T04:17:34;99395.00;;;20.31;100.00
40612;BME280;26317;44.894;20.286;2023-08-06T04:20:19;99384.09;;;20.31;100.00
40612;BME280;26317;44.894;20.286;2023-08-06T04:22:57;99383.81;;;20.36;100.00
40612;BME280;26317;44.894;20.286;2023-08-06T04:25:30;99376.84;;;20.39;100.00
40612;BME280;26317;44.894;20.286;2023-08-06T04:28:05;99368.66;;;20.39;100.00
40612;BME280;26317;44.894;20.286;2023-08-06T04:30:44;99383.91;;;20.43;100.00
40612;BME280;26317;44.894;20.286;2023-08-06T04:33:20;99392.13;;;20.47;100.00
40612;BME280;26317;44.894;20.286;2023-08-06T04:36:09;99374.66;;;20.48;100.00
40612;BME280;26317;44.894;20.286;2023-08-06T04:38:46;99385.25;;;20.53;100.00
40612;BME280;26317;44.894;20.286;2023-08-06T04:41:26;99398.19;;;20.59;100.00
40612;BME280;26317;44.894;20.286;2023-08-06T04:44:00;99382.97;;;20.58;100.00
40612;BME280;26317;44.894;20.286;2023-08-06T04:46:42;99389.97;;;20.56;100.00
40612;BME280;26317;44.894;20.286;2023-08-06T04:49:15;99395.47;;;20.59;100.00
40612;BME280;26317;44.894;20.286;2023-08-06T04:52:22;99402.06;;;20.58;100.00
40612;BME280;26317;44.894;20.286;2023-08-06T04:55:00;99404.38;;;20.56;100.00
40612;BME280;26317;44.894;20.286;2023-08-06T04:57:32;99406.31;;;20.56;100.00
40612;BME280;26317;44.894;20.286;2023-08-06T05:00:26;99413.34;;;20.57;100.00
40612;BME280;26317;44.894;20.286;2023-08-06T05:03:09;99412.94;;;20.58;100.00
40612;BME280;26317;44.894;20.286;2023-08-06T05:05:43;99405.47;;;20.52;100.00
40612;BME280;26317;44.894;20.286;2023-08-06T05:08:23;99420.22;;;20.51;100.00
40612;BME280;26317;44.894;20.286;2023-08-06T05:11:03;99409.63;;;20.46;100.00
40612;BME280;26317;44.894;20.286;2023-08-06T05:13:47;99421.81;;;20.52;100.00
40612;BME280;26317;44.894;20.286;2023-08-06T05:16:26;99418.34;;;20.55;100.00
40612;BME280;26317;44.894;20.286;2023-08-06T05:19:08;99422.66;;;20.56;100.00
40612;BME280;26317;44.894;20.286;2023-08-06T05:21:51;99413.19;;;20.50;100.00
40612;BME280;26317;44.894;20.286;2023-08-06T05:24:28;99428.16;;;20.59;100.00
40612;BME280;26317;44.894;20.286;2023-08-06T05:27:08;99431.66;;;20.60;100.00
40612;BME280;26317;44.894;20.286;2023-08-06T05:29:55;99426.66;;;20.62;100.00
40612;BME280;26317;44.894;20.286;2023-08-06T05:32:36;99434.94;;;20.69;100.00
40612;BME280;26317;44.894;20.286;2023-08-06T05:35:17;99433.00;;;20.70;100.00
40612;BME280;26317;44.894;20.286;2023-08-06T05:37:51;99433.78;;;20.70;100.00
40612;BME280;26317;44.894;20.286;2023-08-06T05:40:41;99433.84;;;20.74;100.00
40612;BME280;26317;44.894;20.286;2023-08-06T05:43:21;99421.41;;;20.76;100.00
40612;BME280;26317;44.894;20.286;2023-08-06T05:46:02;99425.38;;;20.79;100.00
40612;BME280;26317;44.894;20.286;2023-08-06T05:48:34;99424.59;;;20.78;100.00
40612;BME280;26317;44.894;20.286;2023-08-06T05:51:10;99423.16;;;20.88;100.00
40612;BME280;26317;44.894;20.286;2023-08-06T05:53:46;99427.91;;;20.91;100.00
40612;BME280;26317;44.894;20.286;2023-08-06T05:56:35;99428.34;;;20.96;100.00
40612;BME280;26317;44.894;20.286;2023-08-06T05:59:08;99421.84;;;21.04;100.00
40612;BME280;26317;44.894;20.286;2023-08-06T06:01:58;99427.72;;;21.06;100.00
40612;BME280;26317;44.894;20.286;2023-08-06T06:04:40;99433.59;;;21.08;100.00
40612;BME280;26317;44.894;20.286;2023-08-06T06:07:20;99433.53;;;21.05;100.00
40612;BME280;26317;44.894;20.286;2023-08-06T06:09:56;99447.59;;;21.07;100.00
40612;BME280;26317;44.894;20.286;2023-08-06T06:12:50;99448.41;;;21.07;100.00
40612;BME280;26317;44.894;20.286;2023-08-06T06:15:28;99444.50;;;21.08;100.00
40612;BME280;26317;44.894;20.286;2023-08-06T06:18:00;99443.31;;;21.06;100.00
40612;BME280;26317;44.894;20.286;2023-08-06T06:20:35;99452.31;;;21.10;100.00
40612;BME280;26317;44.894;20.286;2023-08-06T06:23:20;99443.00;;;21.11;100.00
40612;BME280;26317;44.894;20.286;2023-08-06T06:25:57;99443.59;;;21.01;100.00
40612;BME280;26317;44.894;20.286;2023-08-06T06:28:38;99451.59;;;21.13;100.00
40612;BME280;26317;44.894;20.286;2023-08-06T06:31:17;99462.69;;;21.24;100.00
40612;BME280;26317;44.894;20.286;2023-08-06T06:33:51;99461.53;;;21.25;100.00
40612;BME280;26317;44.894;20.286;2023-08-06T06:36:30;99467.03;;;21.28;100.00
40612;BME280;26317;44.894;20.286;2023-08-06T06:39:07;99460.38;;;21.26;100.00
40612;BME280;26317;44.894;20.286;2023-08-06T06:41:48;99462.78;;;21.31;100.00
40612;BME280;26317;44.894;20.286;2023-08-06T06:44:35;99465.78;;;21.22;100.00
40612;BME280;26317;44.894;20.286;2023-08-06T06:47:10;99464.16;;;21.18;100.00
40612;BME280;26317;44.894;20.286;2023-08-06T06:49:48;99464.16;;;21.18;100.00
40612;BME280;26317;44.894;20.286;2023-08-06T06:52:24;99464.66;;;21.27;100.00
40612;BME280;26317;44.894;20.286;2023-08-06T06:55:05;99467.44;;;21.30;100.00
40612;BME280;26317;44.894;20.286;2023-08-06T06:57:41;99468.41;;;21.41;100.00
40612;BME280;26317;44.894;20.286;2023-08-06T07:00:21;99462.94;;;21.41;100.00
40612;BME280;26317;44.894;20.286;2023-08-06T07:02:54;99467.44;;;21.56;100.00
40612;BME280;26317;44.894;20.286;2023-08-06T07:05:29;99471.00;;;21.61;100.00
40612;BME280;26317;44.894;20.286;2023-08-06T07:08:15;99477.25;;;21.61;100.00
40612;BME280;26317;44.894;20.286;2023-08-06T07:11:05;99469.97;;;21.72;100.00
40612;BME280;26317;44.894;20.286;2023-08-06T07:13:44;99474.13;;;21.63;100.00
40612;BME280;26317;44.894;20.286;2023-08-06T07:16:18;99484.19;;;21.58;100.00
40612;BME280;26317;44.894;20.286;2023-08-06T07:18:50;99486.50;;;21.53;100.00
40612;BME280;26317;44.894;20.286;2023-08-06T07:21:25;99483.00;;;21.56;100.00
40612;BME280;26317;44.894;20.286;2023-08-06T07:24:00;99481.19;;;21.67;100.00
40612;BME280;26317;44.894;20.286;2023-08-06T07:26:42;99478.22;;;21.79;100.00
40612;BME280;26317;44.894;20.286;2023-08-06T07:29:24;99486.22;;;21.91;100.00
40612;BME280;26317;44.894;20.286;2023-08-06T07:32:20;99485.25;;;22.07;100.00
40612;BME280;26317;44.894;20.286;2023-08-06T07:34:57;99488.13;;;22.21;100.00
40612;BME280;26317;44.894;20.286;2023-08-06T07:37:43;99497.09;;;22.21;100.00
40612;BME280;26317;44.894;20.286;2023-08-06T07:40:20;99493.22;;;22.22;100.00
40612;BME280;26317;44.894;20.286;2023-08-06T07:42:55;99490.50;;;22.26;100.00
40612;BME280;26317;44.894;20.286;2023-08-06T07:45:33;99496.88;;;22.33;100.00
40612;BME280;26317;44.894;20.286;2023-08-06T07:48:12;99495.34;;;22.39;100.00
40612;BME280;26317;44.894;20.286;2023-08-06T07:50:51;99502.31;;;22.33;100.00
40612;BME280;26317;44.894;20.286;2023-08-06T07:53:25;99503.03;;;22.27;100.00
40612;BME280;26317;44.894;20.286;2023-08-06T07:55:58;99499.06;;;22.21;100.00
40612;BME280;26317;44.894;20.286;2023-08-06T07:58:35;99499.75;;;22.14;100.00
40612;BME280;26317;44.894;20.286;2023-08-06T08:01:20;99493.50;;;22.14;99.97
40612;BME280;26317;44.894;20.286;2023-08-06T08:04:04;99499.88;;;22.25;100.00
40612;BME280;26317;44.894;20.286;2023-08-06T08:06:42;99488.66;;;22.33;100.00
40612;BME280;26317;44.894;20.286;2023-08-06T08:09:24;99486.13;;;22.55;100.00
40612;BME280;26317;44.894;20.286;2023-08-06T08:12:01;99492.09;;;22.67;96.28
40612;BME280;26317;44.894;20.286;2023-08-06T08:14:45;99496.50;;;22.75;96.13
40612;BME280;26317;44.894;20.286;2023-08-06T08:17:23;99491.84;;;22.79;94.93
40612;BME280;26317;44.894;20.286;2023-08-06T08:20:00;99501.25;;;22.82;94.85
40612;BME280;26317;44.894;20.286;2023-08-06T08:22:37;99493.41;;;22.77;97.61
40612;BME280;26317;44.894;20.286;2023-08-06T08:25:08;99492.09;;;22.67;94.28
40612;BME280;26317;44.894;20.286;2023-08-06T08:27:47;99505.47;;;22.72;94.15
40612;BME280;26317;44.894;20.286;2023-08-06T08:30:28;99509.00;;;22.76;96.87
40612;BME280;26317;44.894;20.286;2023-08-06T08:33:07;99511.75;;;22.76;94.87
40612;BME280;26317;44.894;20.286;2023-08-06T08:35:54;99515.25;;;22.73;92.96
40612;BME280;26317;44.894;20.286;2023-08-06T08:38:33;99516.59;;;22.93;95.14
40612;BME280;26317;44.894;20.286;2023-08-06T08:41:11;99517.44;;;23.01;93.96
40612;BME280;26317;44.894;20.286;2023-08-06T08:43:52;99526.44;;;23.05;91.43
40612;BME280;26317;44.894;20.286;2023-08-06T08:46:38;99512.75;;;23.02;92.90
40612;BME280;26317;44.894;20.286;2023-08-06T08:49:30;99521.44;;;23.14;89.95
40612;BME280;26317;44.894;20.286;2023-08-06T08:52:16;99520.31;;;23.19;93.29
40612;BME280;26317;44.894;20.286;2023-08-06T08:54:57;99526.59;;;23.23;93.94
40612;BME280;26317;44.894;20.286;2023-08-06T08:57:36;99513.69;;;23.23;94.15
40612;BME280;26317;44.894;20.286;2023-08-06T09:00:18;99514.25;;;23.43;95.73
40612;BME280;26317;44.894;20.286;2023-08-06T09:02:58;99515.84;;;23.51;90.67
40612;BME280;26317;44.894;20.286;2023-08-06T09:05:35;99532.97;;;23.41;90.82
40612;BME280;26317;44.894;20.286;2023-08-06T09:08:21;99513.72;;;23.27;90.47
40612;BME280;26317;44.894;20.286;2023-08-06T09:11:21;99509.00;;;23.24;89.97
40612;BME280;26317;44.894;20.286;2023-08-06T09:13:57;99510.63;;;23.32;87.21
40612;BME280;26317;44.894;20.286;2023-08-06T09:16:43;99514.69;;;23.49;90.09
40612;BME280;26317;44.894;20.286;2023-08-06T09:19:20;99511.94;;;23.49;88.82
40612;BME280;26317;44.894;20.286;2023-08-06T09:22:11;99511.16;;;23.48;87.67
40612;BME280;26317;44.894;20.286;2023-08-06T09:24:57;99500.06;;;23.34;86.51
40612;BME280;26317;44.894;20.286;2023-08-06T09:27:38;99515.78;;;23.41;86.53
40612;BME280;26317;44.894;20.286;2023-08-06T09:30:12;99506.47;;;23.52;87.42
40612;BME280;26317;44.894;20.286;2023-08-06T09:33:08;99506.16;;;23.64;87.68
40612;BME280;26317;44.894;20.286;2023-08-06T09:35:45;99516.75;;;23.69;87.81
40612;BME280;26317;44.894;20.286;2023-08-06T09:41:26;99507.06;;;23.93;85.77
40612;BME280;26317;44.894;20.286;2023-08-06T09:44:07;99502.91;;;24.17;81.81
40612;BME280;26317;44.894;20.286;2023-08-06T09:46:54;99507.25;;;24.36;82.68
40612;BME280;26317;44.894;20.286;2023-08-06T09:49:42;99497.50;;;24.52;82.29
40612;BME280;26317;44.894;20.286;2023-08-06T09:52:20;99487.34;;;24.78;81.30
40612;BME280;26317;44.894;20.286;2023-08-06T09:54:52;99495.94;;;24.72;74.23
40612;BME280;26317;44.894;20.286;2023-08-06T09:57:26;99508.50;;;24.66;74.76
40612;BME280;26317;44.894;20.286;2023-08-06T09:59:59;99493.22;;;24.72;73.34
40612;BME280;26317;44.894;20.286;2023-08-06T10:02:54;99490.50;;;24.87;76.76
40612;BME280;26317;44.894;20.286;2023-08-06T10:05:45;99496.75;;;24.84;74.26
40612;BME280;26317;44.894;20.286;2023-08-06T10:08:22;99493.59;;;24.67;73.12
40612;BME280;26317;44.894;20.286;2023-08-06T10:10:59;99494.75;;;24.52;73.96
40612;BME280;26317;44.894;20.286;2023-08-06T10:13:38;99488.50;;;24.55;75.20
40612;BME280;26317;44.894;20.286;2023-08-06T10:16:12;99487.34;;;24.70;77.24
40612;BME280;26317;44.894;20.286;2023-08-06T10:18:47;99482.28;;;24.90;73.75
40612;BME280;26317;44.894;20.286;2023-08-06T10:21:24;99487.75;;;24.80;73.08
40612;BME280;26317;44.894;20.286;2023-08-06T10:23:57;99481.06;;;24.77;73.18
40612;BME280;26317;44.894;20.286;2023-08-06T10:26:30;99484.97;;;24.72;74.69
40612;BME280;26317;44.894;20.286;2023-08-06T10:29:36;99477.53;;;24.80;74.54
40612;BME280;26317;44.894;20.286;2023-08-06T10:32:07;99480.69;;;24.93;74.20
40612;BME280;26317;44.894;20.286;2023-08-06T10:35:02;99476.75;;;24.76;71.67
40612;BME280;26317;44.894;20.286;2023-08-06T10:37:45;99475.59;;;24.73;71.67
40612;BME280;26317;44.894;20.286;2023-08-06T10:40:26;99466.97;;;24.79;74.92
40612;BME280;26317;44.894;20.286;2023-08-06T10:43:05;99474.78;;;24.77;71.35
40612;BME280;26317;44.894;20.286;2023-08-06T10:45:56;99474.03;;;24.94;74.92
40612;BME280;26317;44.894;20.286;2023-08-06T10:48:41;99465.00;;;25.18;77.14
40612;BME280;26317;44.894;20.286;2023-08-06T10:51:17;99473.19;;;25.39;70.57
40612;BME280;26317;44.894;20.286;2023-08-06T10:53:56;99473.19;;;25.57;69.89
40612;BME280;26317;44.894;20.286;2023-08-06T10:56:42;99478.19;;;25.83;69.20
40612;BME280;26317;44.894;20.286;2023-08-06T10:59:20;99482.88;;;25.90;71.27
40612;BME280;26317;44.894;20.286;2023-08-06T11:02:11;99485.16;;;26.02;67.85
40612;BME280;26317;44.894;20.286;2023-08-06T11:04:48;99487.47;;;26.21;68.61
40612;BME280;26317;44.894;20.286;2023-08-06T11:07:23;99479.97;;;26.29;65.09
40612;BME280;26317;44.894;20.286;2023-08-06T11:10:02;99478.03;;;26.15;62.08
40612;BME280;26317;44.894;20.286;2023-08-06T11:12:45;99471.72;;;26.18;63.31
40612;BME280;26317;44.894;20.286;2023-08-06T11:15:26;99470.16;;;26.24;66.34
40612;BME280;26317;44.894;20.286;2023-08-06T11:18:13;99464.22;;;26.33;65.05
40612;BME280;26317;44.894;20.286;2023-08-06T11:20:51;99464.50;;;26.49;65.65
40612;BME280;26317;44.894;20.286;2023-08-06T11:23:32;99456.63;;;26.51;63.44
40612;BME280;26317;44.894;20.286;2023-08-06T11:26:03;99458.63;;;26.47;64.42
40612;BME280;26317;44.894;20.286;2023-08-06T11:28:34;99449.13;;;26.59;66.10
40612;BME280;26317;44.894;20.286;2023-08-06T11:31:06;99462.50;;;26.53;63.16
40612;BME280;26317;44.894;20.286;2023-08-06T11:33:46;99467.63;;;26.54;60.45
40612;BME280;26317;44.894;20.286;2023-08-06T11:36:36;99464.47;;;26.52;63.71
40612;BME280;26317;44.894;20.286;2023-08-06T11:39:14;99462.22;;;26.40;63.42
40612;BME280;26317;44.894;20.286;2023-08-06T11:41:52;99476.03;;;26.26;61.99
40612;BME280;26317;44.894;20.286;2023-08-06T11:44:24;99476.88;;;26.20;64.26
40612;BME280;26317;44.894;20.286;2023-08-06T11:47:15;99465.13;;;26.08;63.19
40612;BME280;26317;44.894;20.286;2023-08-06T11:50:12;99464.34;;;26.01;65.64
40612;BME280;26317;44.894;20.286;2023-08-06T11:52:59;99475.03;;;25.92;67.81
40612;BME280;26317;44.894;20.286;2023-08-06T11:55:30;99471.50;;;25.88;67.45
40612;BME280;26317;44.894;20.286;2023-08-06T11:58:20;99476.25;;;25.84;65.37
40612;BME280;26317;44.894;20.286;2023-08-06T12:00:53;99465.25;;;25.84;65.83
40612;BME280;26317;44.894;20.286;2023-08-06T12:03:41;99478.19;;;25.83;66.95
40612;BME280;26317;44.894;20.286;2023-08-06T12:06:44;99466.78;;;25.85;66.96
40612;BME280;26317;44.894;20.286;2023-08-06T12:09:16;99465.19;;;25.94;67.07
40612;BME280;26317;44.894;20.286;2023-08-06T12:11:50;99464.34;;;26.01;64.68
40612;BME280;26317;44.894;20.286;2023-08-06T12:14:26;99464.75;;;26.03;65.20
40612;BME280;26317;44.894;20.286;2023-08-06T12:17:06;99463.53;;;26.11;66.97
40612;BME280;26317;44.894;20.286;2023-08-06T12:19:45;99461.53;;;26.22;66.54
40612;BME280;26317;44.894;20.286;2023-08-06T12:22:19;99462.25;;;26.33;63.26
40612;BME280;26317;44.894;20.286;2023-08-06T12:25:06;99471.63;;;26.46;62.36
40612;BME280;26317;44.894;20.286;2023-08-06T12:27:44;99458.50;;;26.65;61.68
40612;BME280;26317;44.894;20.286;2023-08-06T12:30:20;99466.25;;;26.77;59.20
40612;BME280;26317;44.894;20.286;2023-08-06T12:32:59;99469.44;;;26.75;59.81
40612;BME280;26317;44.894;20.286;2023-08-06T12:35:33;99460.81;;;26.70;60.83
40612;BME280;26317;44.894;20.286;2023-08-06T12:38:17;99465.56;;;26.66;60.34
40612;BME280;26317;44.894;20.286;2023-08-06T12:40:50;99463.28;;;26.57;60.38
40612;BME280;26317;44.894;20.286;2023-08-06T12:43:28;99460.56;;;26.53;61.31
40612;BME280;26317;44.894;20.286;2023-08-06T12:46:14;99464.50;;;26.49;61.04
40612;BME280;26317;44.894;20.286;2023-08-06T12:48:50;99468.91;;;26.36;61.28
40612;BME280;26317;44.894;20.286;2023-08-06T12:51:33;99476.03;;;26.26;62.20
40612;BME280;26317;44.894;20.286;2023-08-06T12:54:20;99470.22;;;26.10;60.22
40612;BME280;26317;44.894;20.286;2023-08-06T12:57:09;99461.97;;;26.10;62.36
40612;BME280;26317;44.894;20.286;2023-08-06T12:59:49;99459.66;;;26.01;61.48
40612;BME280;26317;44.894;20.286;2023-08-06T13:02:27;99457.34;;;25.96;63.37
40612;BME280;26317;44.894;20.286;2023-08-06T13:05:06;99455.81;;;25.88;64.71
40612;BME280;26317;44.894;20.286;2023-08-06T13:07:42;99440.16;;;25.75;68.18
40612;BME280;26317;44.894;20.286;2023-08-06T13:10:29;99449.19;;;25.75;69.59
40612;BME280;26317;44.894;20.286;2023-08-06T13:13:07;99452.38;;;25.67;68.82
40612;BME280;26317;44.894;20.286;2023-08-06T13:15:46;99448.00;;;25.80;72.10
40612;BME280;26317;44.894;20.286;2023-08-06T13:18:22;99465.22;;;25.91;75.54
40612;BME280;26317;44.894;20.286;2023-08-06T13:21:03;99462.50;;;25.84;73.28
40612;BME280;26317;44.894;20.286;2023-08-06T13:23:58;99472.31;;;25.78;74.14
40612;BME280;26317;44.894;20.286;2023-08-06T13:26:48;99487.28;;;25.70;73.00
40612;BME280;26317;44.894;20.286;2023-08-06T13:29:28;99495.97;;;25.54;74.00
40612;BME280;26317;44.894;20.286;2023-08-06T13:32:06;99514.00;;;25.34;74.85
40612;BME280;26317;44.894;20.286;2023-08-06T13:34:48;99531.28;;;25.13;74.10
40612;BME280;26317;44.894;20.286;2023-08-06T13:37:21;99552.69;;;24.30;78.86
40612;BME280;26317;44.894;20.286;2023-08-06T13:40:11;99562.06;;;23.63;85.13
40612;BME280;26317;44.894;20.286;2023-08-06T13:42:57;99555.28;;;22.96;88.12
40612;BME280;26317;44.894;20.286;2023-08-06T13:45:37;99552.91;;;22.54;92.50
40612;BME280;26317;44.894;20.286;2023-08-06T13:48:23;99562.25;;;22.19;95.95
40612;BME280;26317;44.894;20.286;2023-08-06T13:51:01;99551.16;;;22.05;99.21
40612;BME280;26317;44.894;20.286;2023-08-06T13:53:34;99549.31;;;21.86;99.86
40612;BME280;26317;44.894;20.286;2023-08-06T13:56:22;99544.69;;;21.90;100.00